Time;durP1;ratioP1;P1;durP2;ratioP2;P2;SDS_P1;SDS_P2;PMS_P1;PMS_P2;Temp;Humidity;BMP_temperature;BMP_pressure;BME280_temperature;BME280_humidity;BME280_pressure;Samples;Min_cycle;Max_cycle;Signal;HPM_P1;HPM_P2
2022/01/12 00:00:52;;;;;;;46.53;23.45;;;3.80;99.90;;;;;;5156224;27;20061;-67
2022/01/12 00:03:19;;;;;;;42.47;24.30;;;3.80;99.90;;;;;;5123838;27;20525;-67
2022/01/12 00:05:44;;;;;;;46.08;24.95;;;3.90;99.90;;;;;;5135336;27;20043;-67
2022/01/12 00:08:10;;;;;;;42.30;24.20;;;3.90;99.90;;;;;;5135482;27;20153;-67
2022/01/12 00:10:36;;;;;;;48.15;24.10;;;3.90;99.90;;;;;;5135541;27;20073;-67
2022/01/12 00:13:02;;;;;;;48.22;24.75;;;3.90;99.90;;;;;;5127735;27;20030;-67
2022/01/12 00:15:28;;;;;;;47.60;26.10;;;3.80;99.90;;;;;;5155989;27;20073;-66
2022/01/12 00:17:54;;;;;;;52.30;27.15;;;3.90;99.90;;;;;;5137646;27;20042;-67
2022/01/12 00:20:19;;;;;;;53.63;26.75;;;3.90;99.90;;;;;;5137874;27;20083;-67
2022/01/12 00:22:45;;;;;;;48.90;26.77;;;3.90;99.90;;;;;;5146439;27;20027;-66
2022/01/12 00:25:25;;;;;;;48.90;26.90;;;3.90;99.90;;;;;;5135285;27;20397;-66
2022/01/12 00:33:21;;;;;;;49.45;26.23;;;3.90;99.90;;;;;;5148055;27;20038;-65
2022/01/12 00:35:49;;;;;;;46.88;24.98;;;3.90;99.90;;;;;;5155699;27;20046;-66
2022/01/12 00:38:16;;;;;;;47.95;25.67;;;3.90;99.90;;;;;;5120017;27;20476;-66
2022/01/12 00:40:45;;;;;;;42.33;24.73;;;3.90;99.90;;;;;;5155264;27;20490;-66
2022/01/12 00:43:11;;;;;;;45.25;24.27;;;3.90;99.90;;;;;;5142790;27;20432;-66
2022/01/12 00:45:41;;;;;;;40.35;23.70;;;4.00;99.90;;;;;;5134848;27;20099;-66
2022/01/12 00:48:08;;;;;;;45.92;23.80;;;4.00;99.90;;;;;;5116615;27;20031;-66
2022/01/12 00:50:34;;;;;;;48.10;24.63;;;4.00;99.90;;;;;;5134991;27;20455;-66
2022/01/12 00:53:00;;;;;;;57.35;26.75;;;4.00;99.90;;;;;;5126419;27;20113;-66
2022/01/12 00:55:25;;;;;;;47.30;23.90;;;3.90;99.90;;;;;;5137089;27;20038;-66
2022/01/12 00:57:51;;;;;;;47.58;24.55;;;3.90;99.90;;;;;;5155401;27;20446;-66
2022/01/12 01:00:20;;;;;;;45.88;24.70;;;3.90;99.90;;;;;;5155336;27;20113;-67
2022/01/12 01:02:46;;;;;;;44.80;23.63;;;4.00;99.90;;;;;;5145699;27;20448;-66
2022/01/12 01:05:11;;;;;;;58.40;28.23;;;4.00;99.90;;;;;;5133988;27;20043;-66
2022/01/12 01:07:37;;;;;;;53.35;25.70;;;4.00;99.90;;;;;;5116223;27;20108;-67
2022/01/12 01:10:06;;;;;;;53.45;26.98;;;4.00;99.90;;;;;;5116147;27;20066;-66
2022/01/12 01:12:35;;;;;;;49.83;25.80;;;4.00;99.90;;;;;;5140362;27;20039;-67
2022/01/12 01:15:08;;;;;;;54.05;25.85;;;4.00;99.90;;;;;;5136489;27;20107;-67
2022/01/12 01:25:41;;;;;;;58.85;27.55;;;4.00;99.90;;;;;;5134233;27;20078;-67
2022/01/12 01:28:07;;;;;;;54.35;27.17;;;4.00;99.90;;;;;;5134238;28;20368;-67
2022/01/12 01:30:36;;;;;;;59.08;27.77;;;4.00;99.90;;;;;;5133998;28;20427;-66
2022/01/12 01:33:07;;;;;;;59.60;27.38;;;4.00;99.90;;;;;;5125828;27;20058;-67
2022/01/12 01:35:43;;;;;;;70.00;28.50;;;3.90;99.90;;;;;;5136804;27;20042;-67
2022/01/12 01:38:08;;;;;;;68.70;28.70;;;4.00;99.90;;;;;;5136447;27;20046;-68
2022/01/12 01:40:37;;;;;;;66.80;28.33;;;4.00;99.90;;;;;;5154994;27;20035;-67
2022/01/12 01:53:49;;;;;;;68.10;28.55;;;4.10;99.90;;;;;;5132483;27;20052;-67
2022/01/12 01:56:16;;;;;;;62.03;28.50;;;4.00;99.90;;;;;;5136195;27;20035;-68
2022/01/12 01:58:42;;;;;;;71.07;29.30;;;4.00;99.90;;;;;;5154701;27;20050;-67
2022/01/12 02:01:07;;;;;;;63.97;28.33;;;4.00;99.90;;;;;;5154437;27;20095;-68
2022/01/12 02:03:33;;;;;;;65.40;29.35;;;4.00;99.90;;;;;;5121740;28;20039;-67
2022/01/12 02:05:59;;;;;;;75.68;29.58;;;4.10;99.90;;;;;;5133949;28;20364;-68
2022/01/12 02:08:26;;;;;;;74.30;30.30;;;4.10;99.90;;;;;;5133934;28;20032;-67
2022/01/12 02:10:56;;;;;;;67.70;29.48;;;4.10;99.90;;;;;;5133837;28;20115;-67
2022/01/12 02:13:23;;;;;;;71.55;29.02;;;4.10;99.90;;;;;;5146186;27;20103;-68
2022/01/12 02:15:49;;;;;;;83.10;30.45;;;4.10;99.90;;;;;;5135983;27;20107;-68
2022/01/12 02:18:32;;;;;;;83.18;32.55;;;4.10;99.90;;;;;;5158450;27;20049;-67
2022/01/12 02:40:26;;;;;;;93.22;31.45;;;4.00;99.90;;;;;;5139654;27;20046;-68
2022/01/12 02:50:57;;;;;;;128.50;33.35;;;4.10;99.90;;;;;;5118703;27;20043;-68
2022/01/12 02:53:40;;;;;;;95.10;32.70;;;4.10;99.90;;;;;;5149595;27;20118;-68
2022/01/12 02:56:14;;;;;;;108.85;34.33;;;4.10;99.90;;;;;;5139187;27;20043;-68
2022/01/12 02:59:01;;;;;;;142.75;33.85;;;4.10;99.90;;;;;;5139178;27;20050;-68
2022/01/12 03:04:03;;;;;;;149.55;35.22;;;4.10;99.90;;;;;;5121490;27;20054;-67
2022/01/12 03:06:33;;;;;;;92.22;31.83;;;4.10;99.90;;;;;;5136832;27;20053;-69
2022/01/12 03:09:15;;;;;;;126.38;34.53;;;4.20;99.90;;;;;;5135863;27;20039;-68
2022/01/12 03:11:44;;;;;;;87.70;32.13;;;4.20;99.90;;;;;;5136384;27;20310;-68
2022/01/12 03:14:10;;;;;;;110.63;32.55;;;4.20;99.90;;;;;;5154978;27;20454;-69
2022/01/12 03:16:36;;;;;;;134.20;31.35;;;4.20;99.90;;;;;;5156940;27;20054;-67
2022/01/12 03:19:04;;;;;;;95.47;31.92;;;4.20;99.90;;;;;;5139116;27;20478;-68
2022/01/12 03:21:34;;;;;;;115.97;32.88;;;4.30;99.90;;;;;;5156832;27;20125;-68
2022/01/12 03:24:01;;;;;;;125.70;33.47;;;4.20;99.90;;;;;;5139086;27;20046;-69
2022/01/12 03:26:29;;;;;;;96.55;34.50;;;4.30;99.90;;;;;;5117797;27;20066;-67
2022/01/12 03:28:56;;;;;;;114.05;33.13;;;4.30;99.90;;;;;;5136242;27;20036;-68
2022/01/12 03:31:26;;;;;;;110.13;33.25;;;4.30;99.90;;;;;;5117298;27;20122;-68
2022/01/12 03:33:57;;;;;;;93.78;32.92;;;4.40;99.90;;;;;;5152751;27;20130;-68
2022/01/12 03:39:13;;;;;;;151.40;35.83;;;4.40;99.90;;;;;;5138487;27;20102;-68
2022/01/12 03:41:41;;;;;;;101.40;32.47;;;4.40;99.90;;;;;;5156555;27;20042;-69
2022/01/12 03:44:09;;;;;;;79.63;30.88;;;4.50;99.90;;;;;;5119472;27;20126;-68
2022/01/12 03:46:45;;;;;;;92.95;31.90;;;4.40;99.90;;;;;;5100632;27;20050;-68
2022/01/12 03:49:11;;;;;;;89.30;31.35;;;4.50;99.90;;;;;;5100678;27;20039;-69
2022/01/12 03:51:37;;;;;;;85.35;31.70;;;4.50;99.90;;;;;;5100019;27;20035;-68
2022/01/12 03:54:03;;;;;;;107.05;31.77;;;4.50;99.90;;;;;;5135501;27;20047;-68
2022/01/12 03:56:28;;;;;;;89.07;31.38;;;4.40;99.90;;;;;;5137841;27;20107;-69
2022/01/12 03:58:54;;;;;;;95.82;32.65;;;4.50;99.90;;;;;;5138066;27;20038;-68
2022/01/12 04:01:20;;;;;;;80.43;30.55;;;4.50;99.90;;;;;;5137739;27;20070;-68
2022/01/12 04:03:57;;;;;;;94.70;31.77;;;4.50;99.90;;;;;;5140481;27;20051;-67
2022/01/12 04:09:07;;;;;;;87.10;29.70;;;4.50;99.90;;;;;;5117156;27;20398;-68
2022/01/12 04:11:32;;;;;;;104.75;32.83;;;4.50;99.90;;;;;;5099734;27;20790;-68
2022/01/12 04:13:58;;;;;;;81.90;30.25;;;4.40;99.90;;;;;;5133910;27;20043;-68
2022/01/12 04:16:23;;;;;;;89.43;30.73;;;4.50;99.90;;;;;;5137341;27;20138;-68
2022/01/12 04:18:49;;;;;;;74.10;30.98;;;4.50;99.90;;;;;;5155770;27;20359;-68
2022/01/12 04:21:17;;;;;;;105.07;32.28;;;4.40;99.90;;;;;;5137369;27;20103;-68
2022/01/12 04:23:42;;;;;;;93.43;30.67;;;4.40;99.90;;;;;;5140944;27;20042;-67
2022/01/12 04:26:11;;;;;;;82.88;30.98;;;4.40;99.90;;;;;;5135135;27;20451;-67
2022/01/12 04:28:41;;;;;;;78.93;30.30;;;4.50;99.90;;;;;;5116877;27;20035;-68
2022/01/12 04:31:08;;;;;;;73.40;28.85;;;4.50;99.90;;;;;;5134441;27;20524;-68
2022/01/12 04:33:36;;;;;;;74.72;27.90;;;4.50;99.90;;;;;;5113086;27;20090;-68
2022/01/12 04:36:01;;;;;;;81.00;30.30;;;4.50;99.90;;;;;;5137235;27;20073;-68
2022/01/12 04:38:30;;;;;;;69.07;27.80;;;4.50;99.90;;;;;;5119435;27;20081;-68
2022/01/12 04:40:56;;;;;;;78.53;29.08;;;4.50;99.90;;;;;;5155250;27;20039;-68
2022/01/12 04:43:24;;;;;;;80.53;29.77;;;4.50;99.90;;;;;;5125076;27;20479;-67
2022/01/12 04:50:52;;;;;;;63.42;25.23;;;4.60;99.90;;;;;;5116117;27;20039;-68
2022/01/12 04:53:19;;;;;;;59.08;24.10;;;4.60;99.90;;;;;;5127152;27;20422;-68
2022/01/12 04:55:48;;;;;;;52.00;23.60;;;4.60;99.90;;;;;;5137343;27;20359;-67
2022/01/12 04:58:15;;;;;;;53.53;23.50;;;4.60;99.90;;;;;;5136926;27;20066;-68
2022/01/12 05:00:42;;;;;;;49.53;20.67;;;4.70;99.90;;;;;;5155291;27;20068;-68
2022/01/12 05:13:54;;;;;;;40.97;18.85;;;4.70;99.90;;;;;;5134411;27;20355;-68
2022/01/12 05:16:21;;;;;;;34.80;16.40;;;4.70;99.90;;;;;;5136474;27;20055;-68
2022/01/12 05:18:48;;;;;;;35.75;15.55;;;4.70;99.90;;;;;;5136639;27;20082;-68
2022/01/12 05:21:15;;;;;;;33.65;15.52;;;4.70;99.90;;;;;;5136161;27;20118;-67
2022/01/12 05:23:41;;;;;;;39.78;18.30;;;4.80;99.90;;;;;;5140448;27;20114;-68
2022/01/12 05:26:07;;;;;;;36.95;16.90;;;4.70;99.90;;;;;;5134536;27;20122;-67
2022/01/12 05:28:33;;;;;;;38.25;17.77;;;4.80;99.90;;;;;;5116310;28;20466;-68
2022/01/12 05:31:00;;;;;;;40.55;18.88;;;4.80;99.90;;;;;;5115456;28;20031;-68
2022/01/12 05:33:27;;;;;;;38.20;17.83;;;4.80;99.90;;;;;;5146029;27;20083;-67
2022/01/12 05:35:55;;;;;;;43.88;17.70;;;4.80;99.90;;;;;;5119514;27;20038;-67
2022/01/12 05:38:21;;;;;;;41.00;19.10;;;4.80;99.90;;;;;;5136359;27;20043;-68
2022/01/12 05:40:52;;;;;;;42.40;18.30;;;4.80;99.90;;;;;;5136210;27;20340;-68
2022/01/12 05:43:23;;;;;;;47.38;20.75;;;4.80;99.90;;;;;;5126022;28;20169;-69
2022/01/12 05:45:49;;;;;;;45.03;20.25;;;4.80;99.90;;;;;;5116326;28;20473;-69
2022/01/12 05:50:41;;;;;;;45.40;20.30;;;4.80;99.90;;;;;;5122368;27;20081;-68
2022/01/12 05:53:07;;;;;;;52.05;20.83;;;4.70;99.90;;;;;;5139818;27;20023;-69
2022/01/12 05:55:33;;;;;;;56.80;22.00;;;4.70;99.90;;;;;;5137165;27;20058;-69
2022/01/12 05:57:59;;;;;;;54.70;22.27;;;4.70;99.90;;;;;;5119081;27;20031;-67
2022/01/12 06:00:26;;;;;;;52.08;21.83;;;4.70;99.90;;;;;;5136254;27;20118;-67
2022/01/12 06:02:52;;;;;;;54.88;22.52;;;4.60;99.90;;;;;;5138294;27;20051;-69
2022/01/12 06:05:19;;;;;;;46.88;22.48;;;4.60;99.90;;;;;;5119976;27;20039;-68
2022/01/12 06:07:49;;;;;;;48.92;20.05;;;4.60;99.90;;;;;;5119209;27;20062;-68
2022/01/12 06:10:16;;;;;;;40.92;17.13;;;4.70;99.90;;;;;;5150533;27;20110;-68
2022/01/12 06:12:42;;;;;;;42.13;18.85;;;4.70;99.90;;;;;;5139086;27;20126;-69
2022/01/12 06:15:08;;;;;;;43.33;19.25;;;4.70;99.90;;;;;;5139131;27;20511;-68
2022/01/12 06:17:35;;;;;;;45.60;19.40;;;4.80;99.90;;;;;;5139849;27;20035;-68
2022/01/12 06:20:03;;;;;;;47.45;20.40;;;4.70;99.90;;;;;;5139722;27;20467;-68
2022/01/12 06:22:28;;;;;;;41.72;20.38;;;4.80;99.90;;;;;;5138584;27;20035;-68
2022/01/12 06:24:57;;;;;;;48.22;21.88;;;4.70;99.90;;;;;;5140035;27;20042;-67
2022/01/12 06:27:28;;;;;;;43.38;19.40;;;4.70;99.90;;;;;;5139521;27;20050;-67
2022/01/12 06:32:20;;;;;;;45.53;19.80;;;4.70;99.90;;;;;;5137860;27;20050;-68
2022/01/12 06:34:46;;;;;;;49.67;21.17;;;4.70;99.90;;;;;;5139566;27;20035;-67
2022/01/12 06:37:12;;;;;;;43.63;19.83;;;4.60;99.90;;;;;;5139595;27;20058;-67
2022/01/12 06:39:38;;;;;;;43.95;20.63;;;4.50;99.90;;;;;;5121840;27;20039;-65
2022/01/12 06:42:04;;;;;;;40.97;19.10;;;4.40;99.90;;;;;;5146111;27;20121;-68
2022/01/12 06:44:30;;;;;;;41.95;18.63;;;4.40;99.90;;;;;;5122165;27;20043;-69
2022/01/12 06:47:01;;;;;;;40.80;18.88;;;4.30;99.90;;;;;;5118693;27;20046;-68
2022/01/12 06:49:27;;;;;;;41.40;18.15;;;4.30;99.90;;;;;;5136196;27;20047;-67
2022/01/12 06:51:54;;;;;;;35.50;17.55;;;4.20;99.90;;;;;;5136565;27;20278;-72
2022/01/12 06:54:20;;;;;;;38.63;18.58;;;4.10;99.90;;;;;;5119231;27;20106;-68
2022/01/12 06:56:46;;;;;;;33.10;16.90;;;4.10;99.90;;;;;;5118506;27;20457;-68
2022/01/12 06:59:12;;;;;;;33.03;16.42;;;4.00;99.90;;;;;;5118875;27;20038;-67
2022/01/12 07:01:38;;;;;;;39.88;17.55;;;4.00;99.90;;;;;;5135490;27;20043;-68
2022/01/12 07:04:04;;;;;;;32.60;15.90;;;3.90;99.90;;;;;;5117499;27;20038;-69
2022/01/12 07:06:30;;;;;;;42.05;17.90;;;3.90;99.90;;;;;;5138676;27;20100;-67
2022/01/12 07:08:56;;;;;;;38.75;17.02;;;3.90;99.90;;;;;;5137826;27;20049;-68
2022/01/12 07:11:22;;;;;;;36.55;17.10;;;3.90;99.90;;;;;;5116789;27;20585;-68
2022/01/12 07:13:47;;;;;;;36.72;16.95;;;3.80;99.90;;;;;;5135894;27;20122;-68
2022/01/12 07:16:13;;;;;;;40.38;17.55;;;3.70;99.90;;;;;;5137525;27;20087;-67
2022/01/12 07:18:39;;;;;;;40.17;17.80;;;3.60;99.90;;;;;;5138221;27;20039;-69
2022/01/12 07:21:08;;;;;;;40.53;17.83;;;3.60;99.90;;;;;;5121744;27;20082;-66
2022/01/12 07:23:34;;;;;;;32.15;15.85;;;3.60;99.90;;;;;;5140282;27;20471;-68
2022/01/12 07:26:02;;;;;;;42.05;18.40;;;3.60;99.90;;;;;;5135710;27;20483;-66
2022/01/12 07:28:28;;;;;;;35.30;17.42;;;3.50;99.90;;;;;;5156574;27;20034;-68
2022/01/12 07:30:54;;;;;;;32.45;16.67;;;3.50;99.90;;;;;;5142027;27;20047;-68
2022/01/12 07:33:22;;;;;;;37.03;17.60;;;3.50;99.90;;;;;;5152144;27;20031;-67
2022/01/12 07:35:48;;;;;;;37.75;17.23;;;3.50;99.90;;;;;;5137106;27;20093;-66
2022/01/12 07:38:13;;;;;;;37.83;17.85;;;3.50;99.90;;;;;;5136046;27;20070;-67
2022/01/12 07:40:39;;;;;;;39.63;18.27;;;3.50;99.90;;;;;;5135700;27;20038;-66
2022/01/12 07:43:06;;;;;;;39.20;18.00;;;3.60;99.90;;;;;;5126077;27;20166;-67
2022/01/12 07:45:33;;;;;;;42.28;18.23;;;3.60;99.90;;;;;;5138244;27;20375;-67
2022/01/12 07:47:59;;;;;;;38.15;17.40;;;3.70;99.90;;;;;;5121056;27;20477;-68
2022/01/12 07:50:25;;;;;;;40.33;17.27;;;3.80;99.90;;;;;;5156405;27;20074;-68
2022/01/12 07:52:53;;;;;;;42.53;17.42;;;3.80;99.90;;;;;;5131546;27;20050;-67
2022/01/12 07:55:21;;;;;;;37.72;14.80;;;3.80;99.90;;;;;;5117623;27;20062;-68
2022/01/12 07:57:48;;;;;;;45.25;17.45;;;4.00;99.90;;;;;;5117189;27;20054;-67
2022/01/12 08:00:16;;;;;;;55.17;17.98;;;4.00;99.90;;;;;;5126733;27;20481;-68
2022/01/12 08:02:41;;;;;;;38.67;17.60;;;4.00;99.90;;;;;;5132636;27;20035;-68
2022/01/12 08:05:08;;;;;;;44.20;16.98;;;4.00;99.90;;;;;;5135393;27;20031;-68
2022/01/12 08:07:36;;;;;;;44.63;17.75;;;4.00;99.90;;;;;;5135129;27;20141;-67
2022/01/12 08:10:04;;;;;;;41.97;16.10;;;4.00;99.90;;;;;;5117007;27;20035;-68
2022/01/12 08:12:29;;;;;;;38.65;16.30;;;4.10;99.90;;;;;;5119242;27;20053;-67
2022/01/12 08:14:55;;;;;;;40.13;16.63;;;4.10;99.90;;;;;;5137368;27;20439;-67
2022/01/12 08:17:20;;;;;;;43.35;15.73;;;4.10;99.90;;;;;;5120318;27;20045;-67
2022/01/12 08:19:46;;;;;;;36.13;14.60;;;4.20;99.90;;;;;;5137594;27;20047;-67
2022/01/12 08:22:12;;;;;;;30.73;14.15;;;4.00;99.90;;;;;;5154433;27;20061;-67
2022/01/12 08:24:37;;;;;;;33.28;13.50;;;4.10;99.90;;;;;;5083187;27;20038;-66
2022/01/12 08:27:04;;;;;;;26.15;11.95;;;4.10;99.90;;;;;;5116518;27;20043;-67
2022/01/12 08:29:30;;;;;;;33.28;12.05;;;4.10;99.90;;;;;;5116562;27;20035;-68
2022/01/12 08:31:56;;;;;;;23.17;11.70;;;4.10;99.90;;;;;;5116055;27;20039;-67
2022/01/12 08:34:26;;;;;;;44.88;11.98;;;4.10;99.90;;;;;;5125176;27;20054;-68
2022/01/12 08:36:51;;;;;;;36.20;12.80;;;4.10;99.90;;;;;;5099745;27;20039;-68
2022/01/12 08:39:17;;;;;;;58.83;12.60;;;4.10;99.90;;;;;;5116429;27;20674;-69
2022/01/12 08:41:43;;;;;;;174.98;15.38;;;4.10;99.90;;;;;;5134719;27;20046;-67
2022/01/12 08:44:09;;;;;;;67.38;12.80;;;4.00;99.90;;;;;;5133068;27;20049;-68
2022/01/12 08:46:37;;;;;;;102.93;12.27;;;4.00;99.90;;;;;;5155552;27;20042;-68
2022/01/12 08:49:03;;;;;;;164.57;13.98;;;4.00;99.90;;;;;;5119906;27;20036;-67
2022/01/12 08:51:29;;;;;;;71.68;11.68;;;3.90;99.90;;;;;;5136662;27;20103;-67
2022/01/12 08:53:55;;;;;;;192.88;14.88;;;3.90;99.90;;;;;;5122515;27;20191;-67
2022/01/12 08:56:20;;;;;;;94.13;12.98;;;3.90;99.90;;;;;;5116568;27;20122;-68
2022/01/12 08:58:47;;;;;;;135.48;14.15;;;3.90;99.90;;;;;;5116160;27;20486;-67
2022/01/12 09:01:13;;;;;;;158.07;14.13;;;3.90;99.90;;;;;;5115797;27;20035;-68
2022/01/12 09:03:40;;;;;;;172.00;14.90;;;3.90;99.90;;;;;;5127913;27;20101;-67
2022/01/12 09:06:06;;;;;;;176.40;14.00;;;4.00;99.90;;;;;;5136474;27;20042;-68
2022/01/12 09:08:34;;;;;;;144.25;14.52;;;4.00;99.90;;;;;;5137007;27;20041;-67
2022/01/12 09:11:00;;;;;;;269.13;19.60;;;4.00;99.90;;;;;;5154797;27;20062;-67
2022/01/12 09:13:25;;;;;;;303.27;18.83;;;4.00;99.90;;;;;;5153089;27;20051;-67
2022/01/12 09:15:51;;;;;;;209.23;16.55;;;4.00;99.90;;;;;;5130696;27;20047;-66
2022/01/12 09:18:18;;;;;;;186.65;15.90;;;4.00;99.90;;;;;;5128958;27;20056;-68
2022/01/12 09:20:44;;;;;;;186.82;16.95;;;4.00;99.90;;;;;;5095070;28;20039;-68
2022/01/12 09:23:10;;;;;;;159.40;15.55;;;4.00;99.90;;;;;;5119921;27;20100;-68
2022/01/12 09:25:39;;;;;;;161.70;16.80;;;4.00;99.90;;;;;;5132650;27;20126;-68
2022/01/12 09:28:06;;;;;;;138.82;17.10;;;4.00;99.90;;;;;;5133045;27;20042;-67
2022/01/12 09:30:32;;;;;;;165.70;17.80;;;4.10;99.90;;;;;;5124639;27;20110;-68
2022/01/12 09:32:59;;;;;;;193.45;18.85;;;4.10;99.90;;;;;;5151197;27;20054;-68
2022/01/12 09:35:25;;;;;;;192.55;18.85;;;4.20;99.90;;;;;;5114739;28;20051;-66
2022/01/12 09:37:51;;;;;;;465.60;33.08;;;4.10;99.90;;;;;;5095239;28;20047;-67
2022/01/12 09:40:17;;;;;;;116.50;17.00;;;4.10;99.90;;;;;;5112139;28;20046;-67
2022/01/12 09:42:44;;;;;;;106.80;15.98;;;4.20;99.90;;;;;;5115525;28;20050;-67
2022/01/12 09:45:14;;;;;;;164.27;17.17;;;4.20;99.90;;;;;;5132676;28;20047;-68
2022/01/12 09:47:42;;;;;;;160.23;17.15;;;4.20;99.90;;;;;;5133182;28;20039;-68
2022/01/12 09:50:11;;;;;;;67.47;13.60;;;4.20;99.90;;;;;;5132857;28;20039;-68
2022/01/12 09:52:37;;;;;;;185.05;18.63;;;4.20;99.90;;;;;;5132422;28;20184;-68
2022/01/12 09:55:04;;;;;;;69.38;13.90;;;4.30;99.90;;;;;;5133084;28;20507;-67
2022/01/12 09:57:30;;;;;;;198.65;18.23;;;4.40;99.90;;;;;;5132959;28;20106;-67
2022/01/12 09:59:55;;;;;;;192.77;17.52;;;4.50;99.90;;;;;;5132579;28;20474;-68
2022/01/12 10:02:21;;;;;;;135.85;15.73;;;4.50;99.90;;;;;;5131642;28;20050;-69
2022/01/12 10:04:47;;;;;;;175.80;18.38;;;4.60;99.90;;;;;;5112202;28;20036;-68
2022/01/12 10:07:14;;;;;;;83.80;14.68;;;4.60;99.90;;;;;;5095047;28;20054;-68
2022/01/12 10:09:45;;;;;;;101.25;16.23;;;4.70;99.90;;;;;;5112008;28;20360;-69
2022/01/12 10:12:16;;;;;;;104.30;14.82;;;4.60;99.90;;;;;;5112810;28;20035;-67
2022/01/12 10:14:52;;;;;;;140.75;17.13;;;4.60;99.90;;;;;;5112439;28;20039;-68
2022/01/12 10:17:19;;;;;;;54.25;13.10;;;4.60;99.90;;;;;;5111836;28;20056;-67
2022/01/12 10:19:46;;;;;;;58.13;10.65;;;4.60;99.90;;;;;;5111699;28;20043;-67
2022/01/12 10:22:17;;;;;;;55.60;10.20;;;4.60;99.90;;;;;;5111648;28;20039;-67
2022/01/12 10:24:45;;;;;;;44.25;10.20;;;4.60;99.90;;;;;;5112672;28;20193;-67
2022/01/12 10:27:17;;;;;;;41.15;9.65;;;4.60;99.90;;;;;;5111803;28;20452;-68
2022/01/12 10:29:44;;;;;;;36.47;9.38;;;4.60;99.90;;;;;;5112704;28;20495;-66
2022/01/12 10:32:10;;;;;;;53.97;10.35;;;4.60;99.90;;;;;;5111260;28;20058;-67
2022/01/12 10:34:43;;;;;;;35.25;9.45;;;4.70;99.90;;;;;;5102477;28;20063;-66
2022/01/12 10:37:11;;;;;;;42.30;9.88;;;4.70;99.90;;;;;;5112635;28;20050;-66
2022/01/12 10:39:46;;;;;;;31.02;9.15;;;4.70;99.90;;;;;;5115533;28;20039;-67
2022/01/12 10:42:16;;;;;;;27.55;10.02;;;4.80;99.90;;;;;;5115088;28;20051;-67
2022/01/12 10:44:44;;;;;;;51.05;10.25;;;4.80;99.90;;;;;;5116689;28;20115;-67
2022/01/12 10:47:10;;;;;;;43.85;9.85;;;4.90;99.90;;;;;;5125682;27;20436;-66
2022/01/12 10:49:37;;;;;;;145.25;14.38;;;4.90;99.90;;;;;;5136009;27;20038;-69
2022/01/12 10:52:08;;;;;;;52.03;9.60;;;5.00;99.90;;;;;;5134496;27;20043;-67
2022/01/12 10:54:51;;;;;;;54.97;10.25;;;5.00;99.90;;;;;;5135445;27;20063;-67
2022/01/12 10:57:18;;;;;;;29.08;8.23;;;5.00;99.90;;;;;;5116068;27;20523;-67
2022/01/12 10:59:58;;;;;;;26.52;7.15;;;5.00;99.90;;;;;;5098076;28;20071;-67
2022/01/12 11:02:23;;;;;;;32.13;7.20;;;5.00;99.90;;;;;;5114980;27;20122;-67
2022/01/12 11:04:49;;;;;;;23.92;7.20;;;5.00;99.90;;;;;;5135382;27;20122;-68
2022/01/12 11:07:15;;;;;;;47.05;7.13;;;4.90;99.90;;;;;;5135247;27;20041;-68
2022/01/12 11:09:40;;;;;;;53.17;6.43;;;4.90;99.90;;;;;;5135150;27;20039;-67
2022/01/12 11:12:07;;;;;;;47.95;6.40;;;5.00;99.90;;;;;;5135472;27;20035;-67
2022/01/12 11:14:33;;;;;;;45.22;6.57;;;4.90;99.90;;;;;;5116076;27;20104;-67
2022/01/12 11:16:59;;;;;;;67.53;7.53;;;4.80;99.90;;;;;;5114341;28;20055;-68
2022/01/12 11:19:25;;;;;;;50.45;7.15;;;4.80;99.90;;;;;;5097749;28;20043;-68
2022/01/12 11:22:16;;;;;;;43.90;7.65;;;4.70;99.90;;;;;;5115320;28;20062;-68
2022/01/12 11:24:42;;;;;;;39.75;7.93;;;4.70;99.90;;;;;;5117788;27;20057;-68
2022/01/12 11:27:07;;;;;;;48.38;8.25;;;4.80;99.90;;;;;;5117772;27;20476;-67
2022/01/12 11:29:34;;;;;;;26.63;7.00;;;4.80;99.90;;;;;;5117684;27;20039;-68
2022/01/12 11:32:13;;;;;;;23.40;7.68;;;4.90;99.90;;;;;;5117623;27;20106;-68
2022/01/12 11:34:39;;;;;;;27.77;7.50;;;5.00;99.90;;;;;;5111103;27;20057;-67
2022/01/12 11:37:14;;;;;;;32.47;8.05;;;5.00;99.90;;;;;;5117756;27;20050;-67
2022/01/12 11:39:39;;;;;;;36.92;8.38;;;5.00;99.90;;;;;;5117566;27;20043;-68
2022/01/12 11:42:05;;;;;;;23.25;7.57;;;5.10;99.90;;;;;;5117568;27;20039;-67
2022/01/12 11:44:35;;;;;;;30.13;8.55;;;5.10;99.90;;;;;;5135074;27;20043;-66
2022/01/12 11:47:04;;;;;;;42.97;7.60;;;5.10;99.90;;;;;;5117359;27;20122;-66
2022/01/12 11:49:47;;;;;;;52.97;7.00;;;5.10;99.90;;;;;;5117060;27;20074;-67
2022/01/12 11:52:19;;;;;;;28.63;7.07;;;5.20;99.90;;;;;;5135503;27;20508;-68
2022/01/12 11:54:47;;;;;;;38.58;7.07;;;5.20;99.90;;;;;;5117142;27;20031;-67
2022/01/12 11:57:18;;;;;;;23.65;6.47;;;5.20;99.90;;;;;;5117361;27;20427;-67
2022/01/12 11:59:52;;;;;;;29.95;6.75;;;5.20;99.90;;;;;;5117098;27;20366;-68
2022/01/12 12:02:22;;;;;;;37.80;7.13;;;5.30;99.90;;;;;;5100001;27;20462;-67
2022/01/12 12:04:56;;;;;;;27.63;6.95;;;5.30;99.90;;;;;;5080507;28;20157;-68
2022/01/12 12:07:23;;;;;;;26.88;6.72;;;5.20;99.90;;;;;;5096551;28;20347;-67
2022/01/12 12:09:53;;;;;;;31.73;8.02;;;5.30;99.90;;;;;;5096659;28;20706;-67
2022/01/12 12:12:26;;;;;;;25.80;6.55;;;5.30;99.90;;;;;;5079531;28;20040;-67
2022/01/12 12:14:54;;;;;;;37.80;7.00;;;5.30;99.90;;;;;;5116262;27;20070;-67
2022/01/12 12:17:23;;;;;;;31.23;6.65;;;5.40;99.90;;;;;;5117176;27;20126;-67
2022/01/12 12:19:50;;;;;;;40.58;6.45;;;5.40;99.90;;;;;;5116936;27;20047;-67
2022/01/12 12:22:28;;;;;;;36.65;6.03;;;5.40;99.90;;;;;;5116509;27;20046;-67
2022/01/12 12:24:56;;;;;;;47.75;6.68;;;5.40;99.90;;;;;;5116916;27;20047;-67
2022/01/12 12:27:26;;;;;;;50.92;7.28;;;5.40;99.90;;;;;;5116628;27;20050;-67
2022/01/12 12:29:55;;;;;;;50.40;8.27;;;5.40;99.90;;;;;;5134995;27;20130;-67
2022/01/12 12:32:45;;;;;;;57.78;9.13;;;5.40;99.90;;;;;;5134198;27;20122;-67
2022/01/12 12:35:19;;;;;;;47.60;8.55;;;5.40;99.90;;;;;;5112872;27;20043;-66
2022/01/12 12:37:52;;;;;;;47.17;9.75;;;5.40;99.90;;;;;;5099589;27;20122;-67
2022/01/12 12:40:36;;;;;;;63.10;9.50;;;5.40;99.90;;;;;;5116459;27;20047;-67
2022/01/12 12:43:06;;;;;;;44.50;9.00;;;5.40;99.90;;;;;;5115936;27;20039;-67
2022/01/12 12:45:56;;;;;;;44.35;8.90;;;5.50;99.90;;;;;;5116393;27;20047;-68
2022/01/12 12:48:28;;;;;;;61.50;8.00;;;5.50;99.90;;;;;;5116701;27;20047;-66
2022/01/12 12:51:07;;;;;;;46.53;8.05;;;5.50;99.90;;;;;;5116602;27;20355;-66
2022/01/12 12:53:36;;;;;;;39.53;7.90;;;5.60;99.90;;;;;;5116005;27;20034;-66
2022/01/12 12:56:04;;;;;;;37.05;7.82;;;5.60;99.90;;;;;;5099413;27;20078;-67
2022/01/12 12:58:30;;;;;;;41.35;7.88;;;5.60;99.90;;;;;;5115944;27;20092;-67
2022/01/12 13:01:13;;;;;;;26.70;7.70;;;5.60;99.90;;;;;;5133508;27;20057;-66
2022/01/12 13:03:46;;;;;;;36.72;8.43;;;5.60;99.90;;;;;;5115572;27;20046;-67
2022/01/12 13:06:19;;;;;;;30.85;7.95;;;5.50;99.90;;;;;;5110333;27;20046;-66
2022/01/12 13:09:06;;;;;;;46.63;8.68;;;5.60;99.90;;;;;;5115923;27;20038;-69
2022/01/12 13:11:37;;;;;;;36.20;8.32;;;5.60;99.90;;;;;;5098038;27;20059;-68
2022/01/12 13:14:08;;;;;;;27.63;8.18;;;5.70;99.90;;;;;;5132815;27;20039;-67
2022/01/12 13:16:42;;;;;;;28.60;7.60;;;5.60;99.90;;;;;;5130135;27;20062;-67
2022/01/12 13:19:21;;;;;;;35.97;8.70;;;5.60;99.90;;;;;;5127173;27;20499;-67
2022/01/12 13:21:47;;;;;;;28.73;8.70;;;5.60;99.90;;;;;;5112831;28;20047;-68
2022/01/12 13:24:13;;;;;;;22.27;8.38;;;5.60;99.90;;;;;;5095492;27;20487;-67
2022/01/12 13:26:39;;;;;;;27.20;8.68;;;5.60;99.90;;;;;;5133859;27;20047;-68
2022/01/12 13:29:11;;;;;;;21.65;8.15;;;5.60;99.90;;;;;;5128716;27;20039;-67
2022/01/12 13:31:40;;;;;;;51.33;8.23;;;5.70;99.90;;;;;;5112667;28;20402;-70
2022/01/12 13:34:14;;;;;;;36.70;7.82;;;5.60;99.90;;;;;;5098955;28;20112;-67
2022/01/12 13:36:48;;;;;;;37.22;8.05;;;5.60;99.90;;;;;;5134239;28;20054;-67
2022/01/12 13:39:14;;;;;;;;;;;5.60;99.90;;;;;;5116241;28;20100;-68
2022/01/12 13:41:47;;;;;;;25.25;7.72;;;5.60;99.90;;;;;;5133845;27;19915;-67
2022/01/12 13:44:19;;;;;;;34.55;7.93;;;5.60;99.90;;;;;;5114698;28;20062;-67
2022/01/12 13:47:11;;;;;;;25.83;7.35;;;5.60;99.90;;;;;;5115806;28;20360;-68
2022/01/12 13:49:37;;;;;;;43.38;7.97;;;5.60;99.90;;;;;;5134163;28;20043;-66
2022/01/12 13:52:08;;;;;;;32.67;7.72;;;5.70;99.90;;;;;;5133699;28;20039;-66
2022/01/12 13:54:42;;;;;;;23.85;7.35;;;5.60;99.90;;;;;;5116459;28;20039;-67
2022/01/12 13:57:10;;;;;;;27.00;7.03;;;5.60;99.90;;;;;;5113340;28;20111;-67
2022/01/12 13:59:50;;;;;;;21.50;7.57;;;5.50;99.90;;;;;;5113116;28;20352;-67
2022/01/12 14:02:18;;;;;;;23.40;7.43;;;5.50;99.90;;;;;;5095000;28;20040;-66
2022/01/12 14:04:53;;;;;;;32.58;8.32;;;5.60;99.90;;;;;;5130956;28;20040;-67